Impacts METAR Board INFO
IDs:

KORD - Chicago/O'Hare Intl, IL, US

Updated at: 1156 UTC 24 Feb 2018
Potential Impact None Slight Moderate High
Time23/23Z 24/00Z 24/01Z 24/02Z 24/03Z 24/04Z 24/05Z 24/06Z 24/07Z 24/08Z 24/09Z 24/10Z 24/11Z
VIS10 10 10 10 10 10 10 9 10 9 9 10 10
CIG16 18 20 230 230 250 240 160 220 230 170 12 15
CoverOVCOVCOVCOVCOVCOVCOVCOVCOVCOVCOVCOVCOVC
FltCatMVFRMVFRMVFRVFRVFRVFRVFRVFRVFRVFRVFRMVFRMVFR
WX--------------------------
WDir280280250260290310031035010404050
WSpd8 6 4 4 7 5 0 6 7 8 6 9 11
WGst-- -- -- -- -- -- -- -- -- -- -- -- --
Raw hourly METARs
KORD 232251Z 28008KT 10SM OVC016 04/01 A3022 RMK AO2 SLP238 T00390006
KORD 232351Z 28006KT 10SM OVC018 04/M01 A3023 RMK AO2 SLP241 T00391006 10044 20033 53006
KORD 240051Z 25004KT 10SM OVC020 03/00 A3024 RMK AO2 SLP246 T00330000
KORD 240151Z 26004KT 10SM FEW020 OVC230 03/00 A3024 RMK AO2 SLP245 T00280000
KORD 240251Z 29007KT 10SM FEW020 OVC230 03/M01 A3025 RMK AO2 SLP249 T00281006 51007
KORD 240351Z 31005KT 10SM FEW020 SCT230 OVC250 01/M02 A3026 RMK AO2 SLP252 T00111017
KORD 240451Z 00000KT 10SM FEW020 BKN240 OVC300 01/M02 A3026 RMK AO2 SLP254 T00111022
KORD 240551Z 31006KT 9SM FEW020 BKN160 OVC220 01/M02 A3026 RMK AO2 SLP254 T00061022 10039 20006 400670006 51004
KORD 240651Z 35007KT 10SM FEW160 OVC220 01/M03 A3023 RMK AO2 SLP243 T00061028
KORD 240751Z 01008KT 9SM FEW170 OVC230 01/M03 A3022 RMK AO2 SLP240 T00061028
KORD 240851Z 04006KT 9SM BKN170 OVC250 01/M02 A3023 RMK AO2 SLP243 T00061022 55012
KORD 240951Z 04009KT 10SM BKN012 BKN170 OVC250 01/M02 A3021 RMK AO2 SLP235 T00061022
KORD 241051Z 05011KT 10SM OVC015 01/M02 A3019 RMK AO2 SLP229 T00111017